sensor_id;sensor_type;location;lat;lon;timestamp;pressure;altitude;pressure_sealevel;temperature;humidity
19114;BME280;9689;51.052;13.772;2023-04-19T00:05:00;101179.03;;;8.58;88.36
19114;BME280;9689;51.052;13.772;2023-04-19T00:10:01;101166.03;;;8.52;88.30
19114;BME280;9689;51.052;13.772;2023-04-19T00:15:02;101167.75;;;8.51;88.03
19114;BME280;9689;51.052;13.772;2023-04-19T00:20:05;101164.31;;;8.55;87.03
19114;BME280;9689;51.052;13.772;2023-04-19T00:25:07;101159.97;;;8.54;86.39
19114;BME280;9689;51.052;13.772;2023-04-19T00:30:08;101157.34;;;8.49;86.47
19114;BME280;9689;51.052;13.772;2023-04-19T00:35:10;101159.09;;;8.49;86.60
19114;BME280;9689;51.052;13.772;2023-04-19T00:40:11;101151.31;;;8.57;86.14
19114;BME280;9689;51.052;13.772;2023-04-19T00:45:11;101153.06;;;8.55;85.03
19114;BME280;9689;51.052;13.772;2023-04-19T00:50:14;101148.72;;;8.52;84.52
19114;BME280;9689;51.052;13.772;2023-04-19T00:55:15;101154.75;;;8.49;83.65
19114;BME280;9689;51.052;13.772;2023-04-19T01:00:16;101140.03;;;8.39;83.59
19114;BME280;9689;51.052;13.772;2023-04-19T01:05:18;101139.16;;;8.37;83.56
19114;BME280;9689;51.052;13.772;2023-04-19T01:10:18;101133.97;;;8.42;83.31
19114;BME280;9689;51.052;13.772;2023-04-19T01:15:21;101130.53;;;8.47;83.18
19114;BME280;9689;51.052;13.772;2023-04-19T01:20:24;101129.59;;;8.29;82.15
19114;BME280;9689;51.052;13.772;2023-04-19T01:25:27;101121.78;;;8.30;81.87
19114;BME280;9689;51.052;13.772;2023-04-19T01:30:27;101125.19;;;8.15;82.48
19114;BME280;9689;51.052;13.772;2023-04-19T01:35:28;101122.66;;;8.26;81.83
19114;BME280;9689;51.052;13.772;2023-04-19T01:40:30;101118.31;;;8.20;81.82
19114;BME280;9689;51.052;13.772;2023-04-19T01:45:31;101112.25;;;8.18;82.29
19114;BME280;9689;51.052;13.772;2023-04-19T01:50:32;101116.59;;;8.32;81.99
19114;BME280;9689;51.052;13.772;2023-04-19T01:55:34;101114.88;;;8.26;82.20
19114;BME280;9689;51.052;13.772;2023-04-19T02:00:35;101111.38;;;8.18;82.32
19114;BME280;9689;51.052;13.772;2023-04-19T02:05:37;101114.84;;;8.21;81.70
19114;BME280;9689;51.052;13.772;2023-04-19T02:10:39;101101.88;;;8.17;81.83
19114;BME280;9689;51.052;13.772;2023-04-19T02:15:40;101104.44;;;8.09;81.83
19114;BME280;9689;51.052;13.772;2023-04-19T02:20:41;101104.41;;;8.05;81.99
19114;BME280;9689;51.052;13.772;2023-04-19T02:25:43;101099.19;;;7.97;81.88
19114;BME280;9689;51.052;13.772;2023-04-19T02:30:46;101098.28;;;7.86;82.13
19114;BME280;9689;51.052;13.772;2023-04-19T02:35:46;101094.84;;;7.90;82.27
19114;BME280;9689;51.052;13.772;2023-04-19T02:40:48;101099.19;;;7.92;81.99
19114;BME280;9689;51.052;13.772;2023-04-19T02:45:50;101096.56;;;7.85;81.62
19114;BME280;9689;51.052;13.772;2023-04-19T02:50:52;101090.50;;;7.83;82.32
19114;BME280;9689;51.052;13.772;2023-04-19T02:55:55;101082.72;;;7.90;81.93
19114;BME280;9689;51.052;13.772;2023-04-19T03:00:56;101085.28;;;7.81;82.17
19114;BME280;9689;51.052;13.772;2023-04-19T03:05:57;101076.66;;;7.85;81.62
19114;BME280;9689;51.052;13.772;2023-04-19T03:11:00;101072.28;;;7.72;82.50
19114;BME280;9689;51.052;13.772;2023-04-19T03:16:03;101066.22;;;7.67;82.63
19114;BME280;9689;51.052;13.772;2023-04-19T03:21:04;101069.66;;;7.60;82.44
19114;BME280;9689;51.052;13.772;2023-04-19T03:26:25;101067.06;;;7.57;82.52
19114;BME280;9689;51.052;13.772;2023-04-19T03:31:28;101046.31;;;7.57;82.58
19114;BME280;9689;51.052;13.772;2023-04-19T03:36:30;101050.59;;;7.53;82.55
19114;BME280;9689;51.052;13.772;2023-04-19T03:41:32;101049.69;;;7.42;83.14
19114;BME280;9689;51.052;13.772;2023-04-19T03:46:53;101038.44;;;7.40;83.07
19114;BME280;9689;51.052;13.772;2023-04-19T03:51:57;101043.56;;;7.29;83.05
19114;BME280;9689;51.052;13.772;2023-04-19T03:57:00;101034.91;;;7.21;83.36
19114;BME280;9689;51.052;13.772;2023-04-19T04:02:02;101022.78;;;7.20;83.32
19114;BME280;9689;51.052;13.772;2023-04-19T04:07:04;101035.78;;;7.28;83.07
19114;BME280;9689;51.052;13.772;2023-04-19T04:12:06;101038.38;;;7.28;82.11
19114;BME280;9689;51.052;13.772;2023-04-19T04:17:07;101040.91;;;7.17;80.90
19114;BME280;9689;51.052;13.772;2023-04-19T04:22:09;101043.50;;;7.13;81.45
19114;BME280;9689;51.052;13.772;2023-04-19T04:27:14;101051.38;;;7.37;81.71
19114;BME280;9689;51.052;13.772;2023-04-19T04:32:20;101050.34;;;7.04;80.14
19114;BME280;9689;51.052;13.772;2023-04-19T04:37:26;101053.72;;;6.94;78.87
19114;BME280;9689;51.052;13.772;2023-04-19T04:42:28;101047.66;;;6.94;77.16
19114;BME280;9689;51.052;13.772;2023-04-19T04:47:30;101051.13;;;6.94;77.78
19114;BME280;9689;51.052;13.772;2023-04-19T04:52:34;101048.47;;;6.84;76.71
19114;BME280;9689;51.052;13.772;2023-04-19T04:57:46;101050.13;;;6.77;74.45
19114;BME280;9689;51.052;13.772;2023-04-19T05:02:53;101042.34;;;6.72;73.01
19114;BME280;9689;51.052;13.772;2023-04-19T05:07:55;101037.03;;;6.59;74.06
19114;BME280;9689;51.052;13.772;2023-04-19T05:12:58;101046.78;;;6.93;74.16
19114;BME280;9689;51.052;13.772;2023-04-19T05:18:00;101036.53;;;7.10;74.05
19114;BME280;9689;51.052;13.772;2023-04-19T05:23:01;101042.53;;;7.01;71.58
19114;BME280;9689;51.052;13.772;2023-04-19T05:28:06;101047.78;;;7.11;70.97
19114;BME280;9689;51.052;13.772;2023-04-19T05:33:18;101040.78;;;6.97;68.31
19114;BME280;9689;51.052;13.772;2023-04-19T05:38:21;101049.34;;;6.86;66.85
19114;BME280;9689;51.052;13.772;2023-04-19T05:43:23;101048.38;;;6.71;64.20
19114;BME280;9689;51.052;13.772;2023-04-19T05:48:24;101041.47;;;6.72;64.94
19114;BME280;9689;51.052;13.772;2023-04-19T05:53:34;101046.72;;;6.78;64.03
19114;BME280;9689;51.052;13.772;2023-04-19T05:58:36;101041.50;;;6.76;62.19
19114;BME280;9689;51.052;13.772;2023-04-19T06:03:37;101036.25;;;6.64;59.04
19114;BME280;9689;51.052;13.772;2023-04-19T06:08:38;101046.50;;;6.54;58.32
19114;BME280;9689;51.052;13.772;2023-04-19T06:13:43;101049.38;;;6.95;56.23
19114;BME280;9689;51.052;13.772;2023-04-19T06:18:44;101044.09;;;6.76;55.59
19114;BME280;9689;51.052;13.772;2023-04-19T06:23:45;101036.19;;;6.60;55.60
19114;BME280;9689;51.052;13.772;2023-04-19T06:28:47;101028.66;;;6.87;52.00
19114;BME280;9689;51.052;13.772;2023-04-19T06:33:47;101022.59;;;6.91;51.97
19114;BME280;9689;51.052;13.772;2023-04-19T06:38:48;101032.03;;;6.82;51.25
19114;BME280;9689;51.052;13.772;2023-04-19T06:43:50;101033.03;;;6.99;52.86
19114;BME280;9689;51.052;13.772;2023-04-19T06:48:51;101034.94;;;7.32;53.31
19114;BME280;9689;51.052;13.772;2023-04-19T06:53:51;101016.63;;;6.98;55.37
19114;BME280;9689;51.052;13.772;2023-04-19T06:58:53;101024.31;;;6.88;54.38
19114;BME280;9689;51.052;13.772;2023-04-19T07:03:54;101012.94;;;6.67;54.16
19114;BME280;9689;51.052;13.772;2023-04-19T07:08:56;101008.53;;;6.56;53.51
19114;BME280;9689;51.052;13.772;2023-04-19T07:13:58;101001.69;;;6.61;51.73
19114;BME280;9689;51.052;13.772;2023-04-19T07:18:59;101003.38;;;6.60;51.34
19114;BME280;9689;51.052;13.772;2023-04-19T07:24:00;100993.16;;;6.77;51.10
19114;BME280;9689;51.052;13.772;2023-04-19T07:29:02;100987.19;;;6.92;53.25
19114;BME280;9689;51.052;13.772;2023-04-19T07:34:03;100974.28;;;6.96;52.76
19114;BME280;9689;51.052;13.772;2023-04-19T07:39:03;100979.47;;;7.01;51.65
19114;BME280;9689;51.052;13.772;2023-04-19T07:44:05;100970.91;;;7.16;51.70
19114;BME280;9689;51.052;13.772;2023-04-19T07:49:06;100972.69;;;7.27;51.41
19114;BME280;9689;51.052;13.772;2023-04-19T07:54:06;100972.75;;;7.44;51.27
19114;BME280;9689;51.052;13.772;2023-04-19T07:59:10;100971.03;;;7.43;50.87
19114;BME280;9689;51.052;13.772;2023-04-19T08:04:10;100968.47;;;7.49;51.80
19114;BME280;9689;51.052;13.772;2023-04-19T08:09:11;100953.78;;;7.59;53.55
19114;BME280;9689;51.052;13.772;2023-04-19T08:14:14;100954.69;;;7.69;52.91
19114;BME280;9689;51.052;13.772;2023-04-19T08:19:33;100943.44;;;7.80;52.32
19114;BME280;9689;51.052;13.772;2023-04-19T08:24:34;100954.69;;;7.81;52.62
19114;BME280;9689;51.052;13.772;2023-04-19T08:29:37;100951.22;;;7.68;52.09
19114;BME280;9689;51.052;13.772;2023-04-19T08:34:39;100939.97;;;7.61;53.81
19114;BME280;9689;51.052;13.772;2023-04-19T08:39:40;100948.63;;;7.79;53.42
19114;BME280;9689;51.052;13.772;2023-04-19T08:44:42;100934.84;;;8.01;54.54
19114;BME280;9689;51.052;13.772;2023-04-19T08:50:04;100940.03;;;8.21;53.81
19114;BME280;9689;51.052;13.772;2023-04-19T08:55:26;100927.03;;;8.22;53.72
19114;BME280;9689;51.052;13.772;2023-04-19T09:00:29;100920.13;;;8.26;54.17
19114;BME280;9689;51.052;13.772;2023-04-19T09:05:30;100911.47;;;8.29;54.63
19114;BME280;9689;51.052;13.772;2023-04-19T09:10:31;100912.34;;;8.40;54.97
19114;BME280;9689;51.052;13.772;2023-04-19T09:15:37;100901.03;;;8.67;54.50
19114;BME280;9689;51.052;13.772;2023-04-19T09:20:39;100899.25;;;8.83;54.07
19114;BME280;9689;51.052;13.772;2023-04-19T09:25:50;100891.44;;;8.89;54.47
19114;BME280;9689;51.052;13.772;2023-04-19T09:31:10;100888.84;;;8.95;53.47
19114;BME280;9689;51.052;13.772;2023-04-19T09:36:32;100880.19;;;8.85;54.28
19114;BME280;9689;51.052;13.772;2023-04-19T09:41:33;100877.47;;;9.10;53.98
19114;BME280;9689;51.052;13.772;2023-04-19T09:46:39;100873.94;;;9.26;53.59
19114;BME280;9689;51.052;13.772;2023-04-19T09:51:41;100857.88;;;9.90;52.13
19114;BME280;9689;51.052;13.772;2023-04-19T09:56:43;100863.75;;;10.12;51.86
19114;BME280;9689;51.052;13.772;2023-04-19T10:01:46;100857.03;;;9.86;52.89
19114;BME280;9689;51.052;13.772;2023-04-19T10:06:49;100858.75;;;9.92;51.07
19114;BME280;9689;51.052;13.772;2023-04-19T10:12:10;100855.72;;;9.27;51.26
19114;BME280;9689;51.052;13.772;2023-04-19T10:17:34;100846.22;;;9.19;52.20
19114;BME280;9689;51.052;13.772;2023-04-19T10:22:35;100831.13;;;9.73;50.22
19114;BME280;9689;51.052;13.772;2023-04-19T10:27:37;100820.31;;;10.17;47.04
19114;BME280;9689;51.052;13.772;2023-04-19T10:32:41;100826.31;;;10.28;46.24
19114;BME280;9689;51.052;13.772;2023-04-19T10:38:01;100824.69;;;10.13;48.20
19114;BME280;9689;51.052;13.772;2023-04-19T10:43:15;100832.94;;;10.57;47.49
19114;BME280;9689;51.052;13.772;2023-04-19T10:48:50;100829.34;;;9.79;48.53
19114;BME280;9689;51.052;13.772;2023-04-19T10:53:58;100827.41;;;10.03;48.68
19114;BME280;9689;51.052;13.772;2023-04-19T10:59:14;100816.06;;;10.10;48.18
19114;BME280;9689;51.052;13.772;2023-04-19T11:09:56;100804.94;;;9.93;47.87
19114;BME280;9689;51.052;13.772;2023-04-19T11:14:57;100801.47;;;9.89;48.28
19114;BME280;9689;51.052;13.772;2023-04-19T11:20:00;100790.09;;;10.01;46.11
19114;BME280;9689;51.052;13.772;2023-04-19T11:25:07;100776.09;;;10.88;44.42
19114;BME280;9689;51.052;13.772;2023-04-19T11:30:10;100774.91;;;10.44;45.20
19114;BME280;9689;51.052;13.772;2023-04-19T11:35:11;100768.84;;;10.43;45.96
19114;BME280;9689;51.052;13.772;2023-04-19T11:40:15;100766.47;;;10.16;46.02
19114;BME280;9689;51.052;13.772;2023-04-19T11:45:23;100764.81;;;10.10;46.69
19114;BME280;9689;51.052;13.772;2023-04-19T11:50:32;100775.97;;;10.28;48.59
19114;BME280;9689;51.052;13.772;2023-04-19T11:55:35;100777.09;;;10.01;48.42
19114;BME280;9689;51.052;13.772;2023-04-19T12:00:35;100770.94;;;10.06;47.62
19114;BME280;9689;51.052;13.772;2023-04-19T12:05:36;100776.88;;;10.22;46.46
19114;BME280;9689;51.052;13.772;2023-04-19T12:10:54;100769.06;;;10.20;45.57
19114;BME280;9689;51.052;13.772;2023-04-19T12:15:55;100762.72;;;10.46;45.30
19114;BME280;9689;51.052;13.772;2023-04-19T12:20:56;100750.19;;;10.74;45.92
19114;BME280;9689;51.052;13.772;2023-04-19T12:26:03;100757.75;;;10.92;45.73
19114;BME280;9689;51.052;13.772;2023-04-19T12:31:05;100750.38;;;10.60;46.53
19114;BME280;9689;51.052;13.772;2023-04-19T12:36:06;100752.78;;;10.02;47.86
19114;BME280;9689;51.052;13.772;2023-04-19T12:41:08;100745.50;;;10.33;47.87
19114;BME280;9689;51.052;13.772;2023-04-19T12:46:08;100740.41;;;10.90;46.79
19114;BME280;9689;51.052;13.772;2023-04-19T12:51:09;100736.13;;;10.84;45.94
19114;BME280;9689;51.052;13.772;2023-04-19T12:56:11;100729.03;;;10.94;46.02
19114;BME280;9689;51.052;13.772;2023-04-19T13:01:14;100721.84;;;10.48;45.88
19114;BME280;9689;51.052;13.772;2023-04-19T13:06:15;100712.16;;;10.58;46.04
19114;BME280;9689;51.052;13.772;2023-04-19T13:11:17;100706.88;;;10.65;45.49
19114;BME280;9689;51.052;13.772;2023-04-19T13:16:21;100694.78;;;10.58;46.15
19114;BME280;9689;51.052;13.772;2023-04-19T13:21:22;100689.84;;;11.00;45.47
19114;BME280;9689;51.052;13.772;2023-04-19T13:26:24;100694.91;;;12.09;44.36
19114;BME280;9689;51.052;13.772;2023-04-19T13:31:25;100681.38;;;11.87;43.35
19114;BME280;9689;51.052;13.772;2023-04-19T13:36:26;100664.06;;;11.34;43.55
19114;BME280;9689;51.052;13.772;2023-04-19T13:41:28;100657.16;;;10.79;45.87
19114;BME280;9689;51.052;13.772;2023-04-19T13:46:29;100664.00;;;10.22;51.04
19114;BME280;9689;51.052;13.772;2023-04-19T13:51:30;100653.69;;;10.12;54.21
19114;BME280;9689;51.052;13.772;2023-04-19T13:56:49;100660.16;;;9.79;53.64
19114;BME280;9689;51.052;13.772;2023-04-19T14:01:51;100659.81;;;10.08;53.73
19114;BME280;9689;51.052;13.772;2023-04-19T14:06:54;100667.63;;;10.10;53.86
19114;BME280;9689;51.052;13.772;2023-04-19T14:11:56;100695.91;;;8.41;64.32
19114;BME280;9689;51.052;13.772;2023-04-19T14:16:57;100717.75;;;7.74;68.20
19114;BME280;9689;51.052;13.772;2023-04-19T14:21:57;100706.50;;;7.78;68.80
19114;BME280;9689;51.052;13.772;2023-04-19T14:26:59;100714.16;;;8.22;67.83
19114;BME280;9689;51.052;13.772;2023-04-19T14:32:03;100711.72;;;7.58;68.81
19114;BME280;9689;51.052;13.772;2023-04-19T14:37:23;100714.34;;;7.23;72.10
19114;BME280;9689;51.052;13.772;2023-04-19T14:42:25;100716.03;;;7.38;73.34
19114;BME280;9689;51.052;13.772;2023-04-19T14:47:26;100712.59;;;7.56;72.76
19114;BME280;9689;51.052;13.772;2023-04-19T14:52:27;100723.81;;;7.61;72.52
19114;BME280;9689;51.052;13.772;2023-04-19T14:57:29;100727.25;;;7.72;71.14
19114;BME280;9689;51.052;13.772;2023-04-19T15:02:30;100740.19;;;7.97;71.07
19114;BME280;9689;51.052;13.772;2023-04-19T15:07:31;100742.84;;;7.60;72.21
19114;BME280;9689;51.052;13.772;2023-04-19T15:12:33;100738.53;;;7.42;72.33
19114;BME280;9689;51.052;13.772;2023-04-19T15:17:33;100744.56;;;7.29;73.05
19114;BME280;9689;51.052;13.772;2023-04-19T15:22:34;100747.94;;;6.76;71.07
19114;BME280;9689;51.052;13.772;2023-04-19T15:27:36;100751.38;;;6.69;71.52
19114;BME280;9689;51.052;13.772;2023-04-19T15:32:37;100749.53;;;6.36;72.62
19114;BME280;9689;51.052;13.772;2023-04-19T15:37:37;100745.19;;;6.33;73.12
19114;BME280;9689;51.052;13.772;2023-04-19T15:42:40;100745.22;;;6.39;72.94
19114;BME280;9689;51.052;13.772;2023-04-19T15:47:41;100753.97;;;6.61;73.06
19114;BME280;9689;51.052;13.772;2023-04-19T15:52:42;100748.81;;;6.86;72.03
19114;BME280;9689;51.052;13.772;2023-04-19T15:57:44;100748.91;;;7.33;71.36
19114;BME280;9689;51.052;13.772;2023-04-19T16:02:48;100747.19;;;7.23;71.93
19114;BME280;9689;51.052;13.772;2023-04-19T16:07:59;100742.81;;;7.02;71.94
19114;BME280;9689;51.052;13.772;2023-04-19T16:13:02;100736.75;;;6.80;72.62
19114;BME280;9689;51.052;13.772;2023-04-19T16:18:04;100737.63;;;6.97;72.55
19114;BME280;9689;51.052;13.772;2023-04-19T16:23:05;100732.47;;;6.96;71.57
19114;BME280;9689;51.052;13.772;2023-04-19T16:28:07;100721.22;;;6.88;71.53
19114;BME280;9689;51.052;13.772;2023-04-19T16:33:07;100722.09;;;6.99;70.64
19114;BME280;9689;51.052;13.772;2023-04-19T16:38:08;100720.34;;;6.87;71.27
19114;BME280;9689;51.052;13.772;2023-04-19T16:43:10;100716.03;;;6.92;70.44
19114;BME280;9689;51.052;13.772;2023-04-19T16:48:11;100710.78;;;6.60;72.22
19114;BME280;9689;51.052;13.772;2023-04-19T16:53:11;100706.50;;;6.76;72.07
19114;BME280;9689;51.052;13.772;2023-04-19T16:58:13;100708.16;;;6.45;73.98
19114;BME280;9689;51.052;13.772;2023-04-19T17:03:14;100713.13;;;5.94;77.24
19114;BME280;9689;51.052;13.772;2023-04-19T17:08:15;100706.13;;;5.83;78.74
19114;BME280;9689;51.052;13.772;2023-04-19T17:13:17;100703.47;;;5.72;78.84
19114;BME280;9689;51.052;13.772;2023-04-19T17:18:18;100704.34;;;5.74;81.11
19114;BME280;9689;51.052;13.772;2023-04-19T17:23:19;100702.63;;;5.79;80.93
19114;BME280;9689;51.052;13.772;2023-04-19T17:28:21;100704.34;;;5.76;81.00
19114;BME280;9689;51.052;13.772;2023-04-19T17:33:21;100703.50;;;5.78;81.53
19114;BME280;9689;51.052;13.772;2023-04-19T17:38:22;100701.81;;;5.88;81.37
19114;BME280;9689;51.052;13.772;2023-04-19T17:43:24;100702.69;;;5.87;80.38
19114;BME280;9689;51.052;13.772;2023-04-19T17:48:24;100698.38;;;5.87;80.93
19114;BME280;9689;51.052;13.772;2023-04-19T17:53:25;100703.53;;;5.84;81.15
19114;BME280;9689;51.052;13.772;2023-04-19T17:58:27;100699.19;;;5.79;80.47
19114;BME280;9689;51.052;13.772;2023-04-19T18:03:28;100706.91;;;5.73;81.30
19114;BME280;9689;51.052;13.772;2023-04-19T18:08:29;100712.06;;;5.66;82.05
19114;BME280;9689;51.052;13.772;2023-04-19T18:13:31;100717.97;;;5.52;81.61
19114;BME280;9689;51.052;13.772;2023-04-19T18:18:32;100716.13;;;5.35;80.84
19114;BME280;9689;51.052;13.772;2023-04-19T18:23:32;100714.41;;;5.33;81.98
19114;BME280;9689;51.052;13.772;2023-04-19T18:28:34;100721.34;;;5.40;82.71
19114;BME280;9689;51.052;13.772;2023-04-19T18:33:36;100724.75;;;5.37;82.42
19114;BME280;9689;51.052;13.772;2023-04-19T18:38:36;100717.91;;;5.43;83.34
19114;BME280;9689;51.052;13.772;2023-04-19T18:43:38;100720.50;;;5.47;84.66
19114;BME280;9689;51.052;13.772;2023-04-19T18:48:52;100719.56;;;5.34;85.16
19114;BME280;9689;51.052;13.772;2023-04-19T18:53:52;100722.16;;;5.34;85.08
19114;BME280;9689;51.052;13.772;2023-04-19T18:58:55;100726.47;;;5.38;84.24
19114;BME280;9689;51.052;13.772;2023-04-19T19:03:56;100728.16;;;5.30;83.74
19114;BME280;9689;51.052;13.772;2023-04-19T19:09:17;100732.47;;;5.33;84.64
19114;BME280;9689;51.052;13.772;2023-04-19T19:14:22;100729.84;;;5.25;84.87
19114;BME280;9689;51.052;13.772;2023-04-19T19:19:23;100722.03;;;5.21;85.34
19114;BME280;9689;51.052;13.772;2023-04-19T19:24:24;100722.88;;;5.15;86.26
19114;BME280;9689;51.052;13.772;2023-04-19T19:29:26;100725.38;;;5.10;86.17
19114;BME280;9689;51.052;13.772;2023-04-19T19:34:27;100723.66;;;5.08;87.90
19114;BME280;9689;51.052;13.772;2023-04-19T19:39:29;100730.53;;;5.07;88.38
19114;BME280;9689;51.052;13.772;2023-04-19T19:44:32;100724.56;;;5.13;88.88
19114;BME280;9689;51.052;13.772;2023-04-19T19:49:32;100730.63;;;5.15;88.88
19114;BME280;9689;51.052;13.772;2023-04-19T19:54:53;100732.34;;;5.15;88.38
19114;BME280;9689;51.052;13.772;2023-04-19T19:59:55;100731.41;;;5.08;88.53
19114;BME280;9689;51.052;13.772;2023-04-19T20:05:14;100733.97;;;5.08;88.78
19114;BME280;9689;51.052;13.772;2023-04-19T20:10:15;100730.47;;;5.03;88.95
19114;BME280;9689;51.052;13.772;2023-04-19T20:15:19;100730.47;;;5.03;89.16
19114;BME280;9689;51.052;13.772;2023-04-19T20:20:20;100729.69;;;5.07;89.58
19114;BME280;9689;51.052;13.772;2023-04-19T20:25:21;100729.63;;;5.02;89.63
19114;BME280;9689;51.052;13.772;2023-04-19T20:30:23;100729.53;;;4.95;89.22
19114;BME280;9689;51.052;13.772;2023-04-19T20:35:24;100729.63;;;5.02;89.88
19114;BME280;9689;51.052;13.772;2023-04-19T20:40:25;100727.00;;;4.96;89.51
19114;BME280;9689;51.052;13.772;2023-04-19T20:45:27;100731.25;;;4.94;89.13
19114;BME280;9689;51.052;13.772;2023-04-19T20:50:28;100729.53;;;4.93;89.89
19114;BME280;9689;51.052;13.772;2023-04-19T20:55:29;100725.13;;;4.80;89.52
19114;BME280;9689;51.052;13.772;2023-04-19T21:00:31;100735.38;;;4.75;90.18
19114;BME280;9689;51.052;13.772;2023-04-19T21:05:31;100733.72;;;4.82;90.16
19114;BME280;9689;51.052;13.772;2023-04-19T21:10:33;100728.56;;;4.83;90.40
19114;BME280;9689;51.052;13.772;2023-04-19T21:15:35;100727.78;;;4.88;90.32
19114;BME280;9689;51.052;13.772;2023-04-19T21:20:36;100726.84;;;4.82;90.38
19114;BME280;9689;51.052;13.772;2023-04-19T21:25:37;100725.91;;;4.74;90.46
19114;BME280;9689;51.052;13.772;2023-04-19T21:30:39;100734.53;;;4.76;89.79
19114;BME280;9689;51.052;13.772;2023-04-19T21:35:41;100733.63;;;4.71;90.16
19114;BME280;9689;51.052;13.772;2023-04-19T21:40:42;100723.31;;;4.71;89.84
19114;BME280;9689;51.052;13.772;2023-04-19T21:45:44;100725.03;;;4.71;89.61
19114;BME280;9689;51.052;13.772;2023-04-19T21:50:45;100722.44;;;4.71;90.29
19114;BME280;9689;51.052;13.772;2023-04-19T21:55:47;100731.03;;;4.70;91.05
19114;BME280;9689;51.052;13.772;2023-04-19T22:00:49;100723.22;;;4.64;90.77
19114;BME280;9689;51.052;13.772;2023-04-19T22:05:51;100730.16;;;4.69;90.92
19114;BME280;9689;51.052;13.772;2023-04-19T22:10:52;100731.03;;;4.70;90.91
19114;BME280;9689;51.052;13.772;2023-04-19T22:15:56;100726.69;;;4.69;90.34
19114;BME280;9689;51.052;13.772;2023-04-19T22:20:59;100722.28;;;4.57;90.70
19114;BME280;9689;51.052;13.772;2023-04-19T22:25:59;100720.63;;;4.61;90.89
19114;BME280;9689;51.052;13.772;2023-04-19T22:31:02;100721.41;;;4.57;90.91
19114;BME280;9689;51.052;13.772;2023-04-19T22:36:03;100720.47;;;4.48;90.93
19114;BME280;9689;51.052;13.772;2023-04-19T22:41:04;100715.38;;;4.54;90.53
19114;BME280;9689;51.052;13.772;2023-04-19T22:46:06;100721.41;;;4.57;91.33
19114;BME280;9689;51.052;13.772;2023-04-19T22:51:07;100713.69;;;4.60;91.29
19114;BME280;9689;51.052;13.772;2023-04-19T22:56:07;100711.06;;;4.53;91.28
19114;BME280;9689;51.052;13.772;2023-04-19T23:01:09;100720.53;;;4.54;90.76
19114;BME280;9689;51.052;13.772;2023-04-19T23:06:10;100730.00;;;4.52;90.44
19114;BME280;9689;51.052;13.772;2023-04-19T23:11:11;100726.47;;;4.49;90.51
19114;BME280;9689;51.052;13.772;2023-04-19T23:16:13;100723.88;;;4.47;90.24
19114;BME280;9689;51.052;13.772;2023-04-19T23:21:14;100718.72;;;4.44;89.65
19114;BME280;9689;51.052;13.772;2023-04-19T23:26:14;100722.13;;;4.43;90.23
19114;BME280;9689;51.052;13.772;2023-04-19T23:31:16;100723.91;;;4.49;89.94
19114;BME280;9689;51.052;13.772;2023-04-19T23:36:17;100723.03;;;4.48;89.75
19114;BME280;9689;51.052;13.772;2023-04-19T23:41:18;100720.47;;;4.48;89.50
19114;BME280;9689;51.052;13.772;2023-04-19T23:46:20;100724.78;;;4.51;89.92
19114;BME280;9689;51.052;13.772;2023-04-19T23:51:20;100723.91;;;4.49;89.85
19114;BME280;9689;51.052;13.772;2023-04-19T23:56:21;100712.69;;;4.45;90.21
